createdAt,value
2022-10-19T00:02:05.335Z,6.68
2022-10-19T00:05:06.802Z,6.07
2022-10-19T00:08:08.309Z,6.07
2022-10-19T00:11:09.958Z,5.45
2022-10-19T00:14:14.002Z,7.78
2022-10-19T00:17:15.324Z,5.50
2022-10-19T00:20:16.614Z,5.80
2022-10-19T00:23:17.852Z,6.03
2022-10-19T00:26:19.111Z,7.18
2022-10-19T00:29:20.351Z,7.32
2022-10-19T00:32:21.730Z,5.75
2022-10-19T00:35:23.000Z,7.10
2022-10-19T00:38:24.256Z,7.85
2022-10-19T00:41:27.517Z,6.00
2022-10-19T00:44:28.778Z,5.78
2022-10-19T00:47:30.678Z,7.38
2022-10-19T00:50:32.018Z,5.15
2022-10-19T00:53:33.425Z,6.20
2022-10-19T00:56:35.454Z,6.80
2022-10-19T00:59:36.980Z,7.13
2022-10-19T01:02:38.334Z,8.13
2022-10-19T01:05:39.827Z,7.85
2022-10-19T01:08:41.056Z,8.45
2022-10-19T01:11:45.101Z,8.55
2022-10-19T01:14:58.974Z,7.13
2022-10-19T01:18:03.205Z,8.38
2022-10-19T01:21:04.437Z,8.63
2022-10-19T01:24:41.018Z,9.77
2022-10-19T01:27:52.998Z,10.65
2022-10-19T01:30:57.293Z,10.82
2022-10-19T01:37:06.742Z,11.77
2022-10-19T01:40:15.098Z,16.50
2022-10-19T01:43:21.466Z,7.72
2022-10-19T01:46:30.225Z,9.50
2022-10-19T01:49:38.868Z,9.25
2022-10-19T01:52:41.031Z,11.38
2022-10-19T01:55:43.288Z,7.38
2022-10-19T01:58:45.109Z,8.70
2022-10-19T02:01:47.689Z,8.75
2022-10-19T02:04:50.192Z,8.63
2022-10-19T02:07:54.660Z,9.00
2022-10-19T02:10:57.206Z,12.02
2022-10-19T02:14:00.817Z,13.68
2022-10-19T02:17:05.328Z,7.60
2022-10-19T02:20:06.807Z,6.93
2022-10-19T02:23:08.105Z,11.63
2022-10-19T02:26:09.371Z,12.30
2022-10-19T02:29:11.403Z,11.07
2022-10-19T02:32:12.729Z,10.68
2022-10-19T02:35:14.506Z,9.10
2022-10-19T02:38:18.843Z,10.20
2022-10-19T02:44:21.194Z,9.45
2022-10-19T02:47:25.893Z,15.10
2022-10-19T02:50:27.537Z,9.95
2022-10-19T02:53:28.812Z,10.45
2022-10-19T02:56:30.082Z,9.63
2022-10-19T02:59:31.443Z,11.10
2022-10-19T03:02:32.754Z,11.52
2022-10-19T03:05:33.998Z,12.75
2022-10-19T03:08:35.247Z,9.10
2022-10-19T03:11:36.538Z,8.63
2022-10-19T03:14:37.801Z,9.93
2022-10-19T03:17:39.128Z,13.50
2022-10-19T03:20:40.347Z,11.27
2022-10-19T03:23:41.877Z,12.80
2022-10-19T03:26:43.165Z,12.80
2022-10-19T03:29:44.467Z,12.18
2022-10-19T03:32:45.800Z,11.82
2022-10-19T03:35:47.082Z,10.32
2022-10-19T03:38:51.810Z,12.02
2022-10-19T03:41:53.036Z,12.82
2022-10-19T03:44:54.294Z,9.98
2022-10-19T03:47:55.618Z,15.60
2022-10-19T03:51:00.624Z,13.95
2022-10-19T03:54:06.322Z,10.85
2022-10-19T03:57:07.538Z,9.02
2022-10-19T04:00:09.694Z,7.50
2022-10-19T04:03:10.969Z,9.43
2022-10-19T04:06:19.622Z,13.35
2022-10-19T04:09:23.645Z,11.18
2022-10-19T04:12:24.864Z,10.45
2022-10-19T04:15:26.104Z,10.80
2022-10-19T04:18:27.813Z,9.93
2022-10-19T04:21:32.098Z,8.00
2022-10-19T04:27:34.815Z,7.80
2022-10-19T04:30:36.134Z,11.90
2022-10-19T04:33:37.459Z,10.38
2022-10-19T04:36:38.715Z,7.70
2022-10-19T04:39:41.060Z,9.88
2022-10-19T04:42:42.311Z,11.90
2022-10-19T04:45:43.525Z,10.38
2022-10-19T04:48:45.969Z,8.95
2022-10-19T04:51:47.196Z,6.93
2022-10-19T04:54:48.438Z,10.70
2022-10-19T04:57:49.727Z,13.05
2022-10-19T05:00:51.217Z,9.63
2022-10-19T05:03:53.759Z,10.43
2022-10-19T05:06:55.066Z,12.63
2022-10-19T05:09:56.361Z,10.07
2022-10-19T05:12:57.632Z,7.93
2022-10-19T05:15:59.542Z,10.35
2022-10-19T05:19:01.536Z,9.95
2022-10-19T05:22:02.839Z,10.70
2022-10-19T05:25:04.447Z,7.32
2022-10-19T05:28:05.929Z,10.18
2022-10-19T05:31:11.662Z,10.80
2022-10-19T05:34:12.903Z,11.00
2022-10-19T05:37:15.559Z,9.57
2022-10-19T05:40:16.842Z,8.57
2022-10-19T05:43:18.068Z,8.57
2022-10-19T05:46:19.304Z,10.73
2022-10-19T05:49:21.686Z,11.10
2022-10-19T05:52:22.962Z,12.23
2022-10-19T05:55:24.403Z,10.27
2022-10-19T05:58:25.652Z,11.40
2022-10-19T06:01:27.534Z,11.98
2022-10-19T06:04:28.832Z,8.05
2022-10-19T06:07:30.094Z,8.27
2022-10-19T06:10:31.344Z,8.88
2022-10-19T06:13:32.618Z,9.07
2022-10-19T06:16:34.497Z,8.18
2022-10-19T06:19:35.834Z,9.50
2022-10-19T06:22:37.243Z,9.88
2022-10-19T06:25:38.516Z,8.73
2022-10-19T06:28:41.004Z,12.30
2022-10-19T06:31:42.321Z,12.43
2022-10-19T06:34:43.621Z,9.50
2022-10-19T06:37:44.871Z,8.02
2022-10-19T06:40:46.277Z,10.57
2022-10-19T06:43:51.066Z,11.70
2022-10-19T06:46:52.303Z,8.98
2022-10-19T06:49:53.559Z,10.57
2022-10-19T06:52:54.846Z,12.23
2022-10-19T06:55:59.836Z,9.15
2022-10-19T06:59:01.133Z,11.07
2022-10-19T07:02:02.379Z,10.27
2022-10-19T07:05:07.025Z,11.05
2022-10-19T07:08:08.668Z,11.55
2022-10-19T07:11:11.404Z,10.82
2022-10-19T07:14:12.738Z,9.43
2022-10-19T07:17:14.135Z,10.68
2022-10-19T07:20:15.405Z,13.15
2022-10-19T07:23:16.638Z,12.65
2022-10-19T07:26:21.247Z,11.10
2022-10-19T07:29:22.644Z,12.13
2022-10-19T07:32:23.946Z,12.40
2022-10-19T07:35:25.202Z,13.07
2022-10-19T07:38:26.513Z,11.20
2022-10-19T07:41:27.943Z,10.75
2022-10-19T07:44:29.304Z,9.05
2022-10-19T07:47:30.648Z,10.43
2022-10-19T07:50:32.047Z,10.02
2022-10-19T07:53:34.153Z,11.15
2022-10-19T07:56:35.525Z,12.52
2022-10-19T07:59:36.777Z,14.93
2022-10-19T08:02:54.723Z,15.35
2022-10-19T08:06:09.397Z,13.73
2022-10-19T08:09:13.406Z,15.15
2022-10-19T08:12:24.236Z,14.35
2022-10-19T08:15:26.522Z,15.43
2022-10-19T08:18:27.825Z,10.90
2022-10-19T08:21:29.707Z,14.35
2022-10-19T08:24:31.083Z,13.73
2022-10-19T08:27:32.394Z,13.55
2022-10-19T08:30:34.813Z,10.68
2022-10-19T08:33:36.066Z,10.88
2022-10-19T08:36:37.419Z,11.38
2022-10-19T08:39:38.703Z,9.95
2022-10-19T08:42:52.808Z,9.30
2022-10-19T08:45:54.044Z,11.57
2022-10-19T08:48:55.675Z,7.50
2022-10-19T08:52:02.066Z,7.20
2022-10-19T08:55:19.615Z,6.25
2022-10-19T08:58:40.870Z,7.50
2022-10-19T09:01:47.133Z,7.00
2022-10-19T09:04:50.384Z,6.45
2022-10-19T09:07:53.486Z,5.22
2022-10-19T09:10:55.114Z,5.00
2022-10-19T09:14:10.456Z,5.63
2022-10-19T09:17:16.890Z,5.70
2022-10-19T09:20:20.044Z,6.05
2022-10-19T09:23:25.998Z,5.50
2022-10-19T09:26:28.837Z,10.00
2022-10-19T09:29:30.185Z,5.68
2022-10-19T09:32:34.186Z,5.43
2022-10-19T09:35:41.042Z,5.53
2022-10-19T09:38:42.336Z,5.25
2022-10-19T09:41:45.108Z,5.80
2022-10-19T09:44:48.048Z,4.85
2022-10-19T09:47:51.813Z,4.55
2022-10-19T09:51:03.419Z,4.93
2022-10-19T09:54:04.771Z,4.60
2022-10-19T09:57:07.232Z,4.72
2022-10-19T10:00:17.088Z,4.20
2022-10-19T10:03:23.909Z,4.38
2022-10-19T10:06:25.185Z,4.18
2022-10-19T10:09:28.140Z,5.38
2022-10-19T10:12:29.395Z,6.53
2022-10-19T10:15:35.601Z,5.05
2022-10-19T10:18:49.685Z,3.88
2022-10-19T10:21:54.902Z,4.63
2022-10-19T10:24:56.951Z,5.00
2022-10-19T10:28:18.028Z,5.57
2022-10-19T10:31:22.726Z,3.88
2022-10-19T10:34:59.886Z,6.47
2022-10-19T10:38:16.565Z,3.83
2022-10-19T10:41:20.088Z,4.00
2022-10-19T10:44:23.157Z,3.72
2022-10-19T10:47:27.022Z,3.95
2022-10-19T10:50:32.498Z,3.53
2022-10-19T10:53:33.738Z,3.28
2022-10-19T10:56:35.310Z,4.00
2022-10-19T10:59:43.068Z,4.03
2022-10-19T11:02:46.814Z,3.58
2022-10-19T11:05:51.281Z,3.50
2022-10-19T11:08:57.030Z,3.13
2022-10-19T11:12:01.889Z,3.10
2022-10-19T11:15:06.894Z,3.53
2022-10-19T11:18:23.606Z,3.40
2022-10-19T11:21:46.841Z,3.60
2022-10-19T11:24:57.806Z,2.75
2022-10-19T11:28:11.641Z,3.33
2022-10-19T11:31:29.978Z,3.00
2022-10-19T11:34:31.305Z,3.05
2022-10-19T11:37:37.511Z,3.63
2022-10-19T11:41:06.064Z,2.67
2022-10-19T11:44:16.610Z,2.22
2022-10-19T11:47:29.748Z,4.22
2022-10-19T11:50:36.325Z,2.80
2022-10-19T11:53:44.636Z,3.67
2022-10-19T11:57:03.290Z,3.10
2022-10-19T12:00:27.190Z,3.30
2022-10-19T12:03:36.314Z,2.88
2022-10-19T12:06:40.668Z,2.42
2022-10-19T12:09:53.958Z,4.13
2022-10-19T12:12:58.817Z,2.70
2022-10-19T12:16:00.710Z,3.03
2022-10-19T12:19:03.164Z,3.05
2022-10-19T12:22:05.963Z,2.80
2022-10-19T12:25:07.396Z,2.83
2022-10-19T12:28:10.782Z,2.17
2022-10-19T12:31:12.378Z,3.42
2022-10-19T12:34:27.737Z,2.15
2022-10-19T12:37:36.404Z,3.00
2022-10-19T12:40:51.346Z,2.78
2022-10-19T12:44:06.582Z,2.17
2022-10-19T12:47:19.040Z,2.40
2022-10-19T12:50:40.276Z,2.42
2022-10-19T12:53:47.798Z,2.30
2022-10-19T12:56:50.412Z,2.22
2022-10-19T12:59:59.405Z,2.15
2022-10-19T13:03:06.063Z,2.55
2022-10-19T13:06:16.162Z,2.40
2022-10-19T13:12:23.555Z,2.28
2022-10-19T13:15:29.606Z,2.08
2022-10-19T13:18:49.634Z,2.85
2022-10-19T13:21:56.734Z,2.17
2022-10-19T13:25:16.580Z,2.38
2022-10-19T13:28:20.827Z,3.00
2022-10-19T13:31:23.623Z,3.03
2022-10-19T13:34:24.999Z,2.60
2022-10-19T13:37:26.353Z,2.00
2022-10-19T13:40:27.721Z,3.05
2022-10-19T13:43:44.224Z,3.80
2022-10-19T13:49:49.711Z,2.17
2022-10-19T13:52:51.188Z,2.42
2022-10-19T13:56:04.667Z,2.50
2022-10-19T13:59:29.204Z,2.53
2022-10-19T14:02:37.219Z,2.45
2022-10-19T14:05:50.685Z,2.72
2022-10-19T14:09:01.368Z,3.28
2022-10-19T14:12:14.174Z,2.53
2022-10-19T14:15:18.490Z,3.20
2022-10-19T14:18:22.384Z,2.55
2022-10-19T14:21:31.576Z,2.70
2022-10-19T14:24:34.521Z,2.65
2022-10-19T14:27:36.156Z,2.60
2022-10-19T14:30:37.705Z,2.35
2022-10-19T14:33:40.337Z,3.28
2022-10-19T14:36:46.340Z,2.53
2022-10-19T14:39:58.202Z,2.55
2022-10-19T14:43:00.597Z,3.05
2022-10-19T14:46:09.893Z,4.35
2022-10-19T14:49:11.416Z,3.78
2022-10-19T14:52:15.792Z,2.83
2022-10-19T14:55:18.241Z,3.15
2022-10-19T14:58:20.784Z,2.97
2022-10-19T15:01:22.102Z,3.78
2022-10-19T15:04:31.183Z,4.07
2022-10-19T15:07:38.411Z,3.58
2022-10-19T15:10:45.691Z,2.50
2022-10-19T15:13:49.312Z,2.90
2022-10-19T15:16:55.674Z,3.30
2022-10-19T15:19:59.838Z,5.93
2022-10-19T15:23:01.925Z,4.10
2022-10-19T15:26:27.428Z,3.40
2022-10-19T15:29:29.206Z,3.33
2022-10-19T15:32:37.912Z,4.80
2022-10-19T15:35:40.702Z,7.47
2022-10-19T15:38:42.244Z,3.80
2022-10-19T15:41:43.498Z,4.18
2022-10-19T15:44:44.782Z,4.32
2022-10-19T15:48:04.015Z,4.10
2022-10-19T15:51:25.325Z,3.65
2022-10-19T15:54:26.551Z,5.07
2022-10-19T15:57:29.410Z,5.28
2022-10-19T16:00:30.815Z,4.00
2022-10-19T16:03:32.072Z,4.10
2022-10-19T16:06:34.036Z,4.45
2022-10-19T16:09:35.270Z,5.40
2022-10-19T16:12:36.508Z,4.70
2022-10-19T16:15:37.815Z,4.40
2022-10-19T16:18:39.547Z,4.10
2022-10-19T16:21:40.880Z,4.15
2022-10-19T16:24:42.991Z,3.88
2022-10-19T16:27:44.227Z,5.35
2022-10-19T16:30:45.836Z,5.18
2022-10-19T16:33:47.094Z,5.38
2022-10-19T16:36:48.369Z,3.85
2022-10-19T16:39:49.663Z,6.00
2022-10-19T16:42:50.988Z,3.30
2022-10-19T16:45:52.251Z,4.10
2022-10-19T16:48:53.551Z,5.13
2022-10-19T16:51:57.318Z,4.03
2022-10-19T16:54:59.591Z,4.80
2022-10-19T16:58:00.833Z,4.18
2022-10-19T17:01:09.105Z,5.03
2022-10-19T17:04:11.093Z,4.60
2022-10-19T17:07:12.919Z,4.03
2022-10-19T17:10:15.251Z,6.00
2022-10-19T17:13:16.560Z,5.80
2022-10-19T17:16:18.462Z,5.40
2022-10-19T17:19:19.715Z,6.50
2022-10-19T17:22:20.965Z,6.00
2022-10-19T17:25:22.193Z,6.95
2022-10-19T17:28:25.526Z,6.03
2022-10-19T17:31:29.250Z,4.72
2022-10-19T17:34:30.539Z,6.07
2022-10-19T17:37:31.761Z,5.75
2022-10-19T17:40:33.050Z,7.05
2022-10-19T17:43:34.784Z,6.05
2022-10-19T17:46:36.168Z,7.80
2022-10-19T17:49:37.430Z,7.78
2022-10-19T17:52:38.659Z,6.88
2022-10-19T17:55:39.896Z,7.57
2022-10-19T17:58:41.842Z,7.63
2022-10-19T18:01:43.102Z,7.43
2022-10-19T18:04:44.358Z,9.23
2022-10-19T18:07:45.717Z,8.95
2022-10-19T18:10:46.966Z,9.10
2022-10-19T18:13:49.011Z,7.68
2022-10-19T18:16:51.915Z,8.00
2022-10-19T18:19:53.170Z,6.72
2022-10-19T18:22:54.416Z,8.50
2022-10-19T18:25:55.699Z,7.95
2022-10-19T18:28:57.708Z,8.95
2022-10-19T18:31:59.045Z,9.05
2022-10-19T18:35:00.371Z,9.73
2022-10-19T18:38:01.954Z,8.73
2022-10-19T18:41:04.167Z,8.13
2022-10-19T18:44:06.755Z,10.35
2022-10-19T18:47:08.175Z,11.75
2022-10-19T18:50:09.616Z,10.05
2022-10-19T18:53:10.968Z,10.73
2022-10-19T18:56:13.504Z,11.75
2022-10-19T18:59:14.993Z,11.63
2022-10-19T19:02:35.047Z,8.85
2022-10-19T19:05:36.613Z,8.75
2022-10-19T19:08:38.458Z,9.30
2022-10-19T19:11:40.984Z,9.70
2022-10-19T19:14:43.811Z,9.45
2022-10-19T19:17:45.071Z,11.45
2022-10-19T19:20:46.320Z,9.38
2022-10-19T19:23:48.271Z,10.43
2022-10-19T19:26:51.089Z,9.95
2022-10-19T19:29:56.015Z,10.57
2022-10-19T19:32:57.905Z,9.45
2022-10-19T19:35:59.164Z,10.25
2022-10-19T19:39:01.015Z,9.32
2022-10-19T19:42:02.249Z,10.35
2022-10-19T19:45:03.659Z,9.40
2022-10-19T19:48:05.945Z,10.32
2022-10-19T19:51:08.007Z,10.70
2022-10-19T19:54:09.443Z,10.20
2022-10-19T19:57:11.284Z,8.25
2022-10-19T20:00:12.868Z,11.55
2022-10-19T20:03:14.157Z,10.27
2022-10-19T20:06:17.270Z,11.23
2022-10-19T20:09:19.971Z,10.65
2022-10-19T20:12:21.202Z,9.45
2022-10-19T20:15:22.550Z,7.85
2022-10-19T20:18:23.780Z,7.47
2022-10-19T20:21:26.868Z,10.25
2022-10-19T20:24:28.103Z,10.70
2022-10-19T20:27:29.365Z,9.30
2022-10-19T20:30:30.766Z,10.48
2022-10-19T20:33:32.785Z,8.25
2022-10-19T20:36:34.886Z,10.88
2022-10-19T20:39:36.121Z,8.27
2022-10-19T20:42:37.760Z,11.82
2022-10-19T20:45:39.347Z,10.50
2022-10-19T20:48:40.766Z,9.70
2022-10-19T20:51:42.132Z,9.77
2022-10-19T20:54:43.447Z,10.82
2022-10-19T20:57:44.667Z,14.27
2022-10-19T21:00:45.910Z,15.23
2022-10-19T21:03:52.561Z,15.80
2022-10-19T21:06:53.812Z,14.98
2022-10-19T21:09:55.299Z,14.05
2022-10-19T21:12:56.548Z,16.63
2022-10-19T21:15:57.833Z,14.77
2022-10-19T21:19:00.575Z,15.55
2022-10-19T21:22:02.368Z,14.68
2022-10-19T21:25:03.845Z,15.02
2022-10-19T21:28:05.176Z,12.48
2022-10-19T21:31:07.672Z,7.97
2022-10-19T21:34:11.481Z,11.85
2022-10-19T21:37:12.750Z,12.05
2022-10-19T21:40:14.079Z,9.77
2022-10-19T21:43:15.357Z,10.02
2022-10-19T21:46:17.968Z,11.32
2022-10-19T21:49:19.246Z,11.70
2022-10-19T21:52:20.471Z,12.20
2022-10-19T21:55:21.791Z,10.48
2022-10-19T21:58:23.084Z,10.13
2022-10-19T22:01:25.841Z,11.45
2022-10-19T22:04:27.194Z,9.55
2022-10-19T22:07:28.414Z,10.25
2022-10-19T22:10:29.696Z,10.32
2022-10-19T22:13:30.983Z,13.48
2022-10-19T22:16:33.343Z,11.77
2022-10-19T22:19:34.618Z,9.00
2022-10-19T22:22:36.342Z,10.55
2022-10-19T22:25:37.894Z,13.85
2022-10-19T22:28:39.185Z,10.07
2022-10-19T22:31:40.504Z,10.00
2022-10-19T22:34:41.745Z,11.57
2022-10-19T22:37:42.979Z,10.32
2022-10-19T22:40:44.232Z,8.50
2022-10-19T22:43:45.474Z,10.88
2022-10-19T22:46:46.734Z,9.35
2022-10-19T22:49:47.985Z,9.00
2022-10-19T22:52:49.217Z,13.13
2022-10-19T22:55:50.842Z,10.07
2022-10-19T22:58:52.090Z,11.82
2022-10-19T23:01:53.423Z,9.18
2022-10-19T23:04:54.737Z,10.15
2022-10-19T23:07:55.970Z,7.53
2022-10-19T23:10:57.254Z,10.40
2022-10-19T23:13:58.487Z,9.45
2022-10-19T23:16:59.722Z,7.95
2022-10-19T23:20:00.950Z,9.45
2022-10-19T23:23:02.171Z,10.20
2022-10-19T23:26:11.075Z,9.00
2022-10-19T23:29:12.346Z,8.15
2022-10-19T23:32:13.581Z,8.70
2022-10-19T23:35:14.927Z,9.00
2022-10-19T23:38:16.155Z,10.07
2022-10-19T23:41:17.889Z,12.10
2022-10-19T23:44:19.122Z,8.45
2022-10-19T23:47:20.387Z,10.48
2022-10-19T23:50:21.610Z,7.18
2022-10-19T23:53:22.856Z,8.40
2022-10-19T23:56:25.338Z,8.00
2022-10-19T23:59:26.566Z,9.48
